sensor_id;sensor_type;location;lat;lon;timestamp;pressure;altitude;pressure_sealevel;temperature;humidity
48848;BME280;36611;51.638;5.784;2023-03-12T00:01:57;101077.16;;;18.97;38.82
48848;BME280;36611;51.638;5.784;2023-03-12T00:04:25;101078.88;;;18.98;39.00
48848;BME280;36611;51.638;5.784;2023-03-12T00:06:52;101074.59;;;18.96;39.09
48848;BME280;36611;51.638;5.784;2023-03-12T00:09:19;101076.63;;;18.94;39.22
48848;BME280;36611;51.638;5.784;2023-03-12T00:11:45;101071.19;;;18.94;39.09
48848;BME280;36611;51.638;5.784;2023-03-12T00:14:12;101078.66;;;18.92;38.72
48848;BME280;36611;51.638;5.784;2023-03-12T00:16:38;101075.91;;;18.92;39.03
48848;BME280;36611;51.638;5.784;2023-03-12T00:19:05;101065.03;;;18.92;38.94
48848;BME280;36611;51.638;5.784;2023-03-12T00:21:31;101066.91;;;18.91;39.25
48848;BME280;36611;51.638;5.784;2023-03-12T00:23:58;101057.03;;;18.90;39.05
48848;BME280;36611;51.638;5.784;2023-03-12T00:26:24;101056.72;;;18.93;39.02
48848;BME280;36611;51.638;5.784;2023-03-12T00:28:51;101056.03;;;18.91;38.89
48848;BME280;36611;51.638;5.784;2023-03-12T00:31:23;101055.88;;;18.93;38.96
48848;BME280;36611;51.638;5.784;2023-03-12T00:33:53;101053.28;;;18.91;38.99
48848;BME280;36611;51.638;5.784;2023-03-12T00:36:22;101047.84;;;18.91;39.01
48848;BME280;36611;51.638;5.784;2023-03-12T00:38:51;101044.13;;;18.92;39.07
48848;BME280;36611;51.638;5.784;2023-03-12T00:41:18;101031.53;;;18.91;39.03
48848;BME280;36611;51.638;5.784;2023-03-12T00:43:46;101033.56;;;18.89;38.87
48848;BME280;36611;51.638;5.784;2023-03-12T00:46:13;101028.47;;;18.94;39.16
48848;BME280;36611;51.638;5.784;2023-03-12T00:48:39;101032.91;;;18.95;38.93
48848;BME280;36611;51.638;5.784;2023-03-12T00:51:06;101019.47;;;18.94;38.96
48848;BME280;36611;51.638;5.784;2023-03-12T00:53:33;101020.00;;;18.97;38.95
48848;BME280;36611;51.638;5.784;2023-03-12T00:56:01;101022.72;;;18.97;39.06
48848;BME280;36611;51.638;5.784;2023-03-12T00:58:28;101027.47;;;18.95;38.96
48848;BME280;36611;51.638;5.784;2023-03-12T01:00:54;101039.22;;;18.96;38.99
48848;BME280;36611;51.638;5.784;2023-03-12T01:03:21;101030.72;;;18.99;39.14
48848;BME280;36611;51.638;5.784;2023-03-12T01:05:47;101017.28;;;18.97;38.95
48848;BME280;36611;51.638;5.784;2023-03-12T01:08:20;101016.28;;;18.98;39.18
48848;BME280;36611;51.638;5.784;2023-03-12T01:10:47;101012.69;;;18.98;39.14
48848;BME280;36611;51.638;5.784;2023-03-12T01:13:14;101018.81;;;19.00;38.86
48848;BME280;36611;51.638;5.784;2023-03-12T01:15:41;101015.25;;;18.99;39.20
48848;BME280;36611;51.638;5.784;2023-03-12T01:18:07;101006.41;;;18.97;39.15
48848;BME280;36611;51.638;5.784;2023-03-12T01:20:34;101009.97;;;18.98;38.86
48848;BME280;36611;51.638;5.784;2023-03-12T01:23:00;101017.28;;;18.97;39.27
48848;BME280;36611;51.638;5.784;2023-03-12T01:25:27;101009.81;;;18.99;39.16
48848;BME280;36611;51.638;5.784;2023-03-12T01:27:53;101007.94;;;19.00;39.24
48848;BME280;36611;51.638;5.784;2023-03-12T01:30:20;101000.47;;;19.02;39.16
48848;BME280;36611;51.638;5.784;2023-03-12T01:32:46;100990.13;;;19.05;38.70
48848;BME280;36611;51.638;5.784;2023-03-12T01:35:13;100987.56;;;19.04;38.77
48848;BME280;36611;51.638;5.784;2023-03-12T01:37:39;100984.84;;;19.04;39.12
48848;BME280;36611;51.638;5.784;2023-03-12T01:40:06;100972.78;;;19.07;38.66
48848;BME280;36611;51.638;5.784;2023-03-12T01:42:33;100979.38;;;19.04;38.98
48848;BME280;36611;51.638;5.784;2023-03-12T01:45:02;100992.31;;;19.02;38.77
48848;BME280;36611;51.638;5.784;2023-03-12T01:47:31;100988.41;;;19.04;38.79
48848;BME280;36611;51.638;5.784;2023-03-12T01:49:59;100984.13;;;19.02;38.97
48848;BME280;36611;51.638;5.784;2023-03-12T01:52:32;100977.84;;;19.01;39.05
48848;BME280;36611;51.638;5.784;2023-03-12T01:55:11;100975.81;;;19.03;38.98
48848;BME280;36611;51.638;5.784;2023-03-12T01:58:00;100978.53;;;19.03;38.95
48848;BME280;36611;51.638;5.784;2023-03-12T02:00:27;100969.19;;;19.06;38.84
48848;BME280;36611;51.638;5.784;2023-03-12T02:02:57;100962.03;;;19.05;38.85
48848;BME280;36611;51.638;5.784;2023-03-12T02:05:35;100953.03;;;19.04;38.99
48848;BME280;36611;51.638;5.784;2023-03-12T02:08:10;100954.56;;;19.07;38.77
48848;BME280;36611;51.638;5.784;2023-03-12T02:10:37;100950.13;;;19.06;38.95
48848;BME280;36611;51.638;5.784;2023-03-12T02:13:05;100946.41;;;19.07;38.95
48848;BME280;36611;51.638;5.784;2023-03-12T02:15:32;100949.97;;;19.08;38.62
48848;BME280;36611;51.638;5.784;2023-03-12T02:18:02;100953.41;;;19.10;38.82
48848;BME280;36611;51.638;5.784;2023-03-12T02:23:34;100944.00;;;19.04;38.88
48848;BME280;36611;51.638;5.784;2023-03-12T02:26:04;100945.72;;;19.05;38.91
48848;BME280;36611;51.638;5.784;2023-03-12T02:28:33;100945.88;;;19.03;38.98
48848;BME280;36611;51.638;5.784;2023-03-12T02:31:10;100940.59;;;19.02;38.71
48848;BME280;36611;51.638;5.784;2023-03-12T02:33:38;100938.88;;;19.01;38.86
48848;BME280;36611;51.638;5.784;2023-03-12T02:36:04;100934.81;;;19.05;38.80
48848;BME280;36611;51.638;5.784;2023-03-12T02:41:06;100942.47;;;19.01;38.68
48848;BME280;36611;51.638;5.784;2023-03-12T02:43:36;100939.72;;;19.01;38.78
48848;BME280;36611;51.638;5.784;2023-03-12T02:46:04;100935.47;;;18.99;38.63
48848;BME280;36611;51.638;5.784;2023-03-12T02:48:31;100923.72;;;18.98;39.06
48848;BME280;36611;51.638;5.784;2023-03-12T02:50:57;100916.94;;;19.02;39.16
48848;BME280;36611;51.638;5.784;2023-03-12T02:53:24;100911.50;;;19.02;38.70
48848;BME280;36611;51.638;5.784;2023-03-12T02:55:51;100908.78;;;19.02;38.87
48848;BME280;36611;51.638;5.784;2023-03-12T02:58:17;100902.47;;;19.02;38.78
48848;BME280;36611;51.638;5.784;2023-03-12T03:00:44;100904.34;;;19.01;38.84
48848;BME280;36611;51.638;5.784;2023-03-12T03:03:10;100902.47;;;19.02;38.86
48848;BME280;36611;51.638;5.784;2023-03-12T03:05:37;100912.53;;;19.01;38.73
48848;BME280;36611;51.638;5.784;2023-03-12T03:08:04;100908.25;;;18.99;39.05
48848;BME280;36611;51.638;5.784;2023-03-12T03:10:31;100907.94;;;19.02;39.13
48848;BME280;36611;51.638;5.784;2023-03-12T03:12:57;100908.78;;;19.02;39.10
48848;BME280;36611;51.638;5.784;2023-03-12T03:15:24;100910.81;;;19.00;38.78
48848;BME280;36611;51.638;5.784;2023-03-12T03:17:51;100908.78;;;19.02;38.86
48848;BME280;36611;51.638;5.784;2023-03-12T03:20:17;100907.28;;;19.08;38.64
48848;BME280;36611;51.638;5.784;2023-03-12T03:22:44;100905.56;;;19.07;38.77
48848;BME280;36611;51.638;5.784;2023-03-12T03:25:11;100898.91;;;19.01;38.68
48848;BME280;36611;51.638;5.784;2023-03-12T03:27:37;100901.63;;;19.01;39.07
48848;BME280;36611;51.638;5.784;2023-03-12T03:30:04;100899.06;;;19.00;39.18
48848;BME280;36611;51.638;5.784;2023-03-12T03:32:35;100913.38;;;19.02;39.17
48848;BME280;36611;51.638;5.784;2023-03-12T03:35:01;100908.25;;;18.99;38.99
48848;BME280;36611;51.638;5.784;2023-03-12T03:37:28;100908.25;;;18.99;39.26
48848;BME280;36611;51.638;5.784;2023-03-12T03:39:55;100897.19;;;19.00;38.69
48848;BME280;36611;51.638;5.784;2023-03-12T03:42:22;100894.31;;;19.02;39.09
48848;BME280;36611;51.638;5.784;2023-03-12T03:44:48;100885.47;;;19.00;38.93
48848;BME280;36611;51.638;5.784;2023-03-12T03:47:15;100884.44;;;19.01;38.77
48848;BME280;36611;51.638;5.784;2023-03-12T03:49:42;100890.75;;;19.01;39.19
48848;BME280;36611;51.638;5.784;2023-03-12T03:52:10;100879.84;;;19.01;39.04
48848;BME280;36611;51.638;5.784;2023-03-12T03:54:38;100891.75;;;19.00;38.75
48848;BME280;36611;51.638;5.784;2023-03-12T03:57:06;100881.88;;;18.99;38.86
48848;BME280;36611;51.638;5.784;2023-03-12T03:59:32;100884.59;;;18.99;39.23
48848;BME280;36611;51.638;5.784;2023-03-12T04:01:59;100883.91;;;18.97;39.02
48848;BME280;36611;51.638;5.784;2023-03-12T04:04:29;100880.19;;;18.98;38.75
48848;BME280;36611;51.638;5.784;2023-03-12T04:06:56;100879.31;;;18.98;39.12
48848;BME280;36611;51.638;5.784;2023-03-12T04:09:24;100867.59;;;18.97;39.20
48848;BME280;36611;51.638;5.784;2023-03-12T04:11:51;100867.25;;;19.00;39.24
48848;BME280;36611;51.638;5.784;2023-03-12T04:14:18;100861.97;;;18.99;39.13
48848;BME280;36611;51.638;5.784;2023-03-12T04:16:44;100859.94;;;19.01;39.13
48848;BME280;36611;51.638;5.784;2023-03-12T04:19:11;100854.66;;;18.99;38.92
48848;BME280;36611;51.638;5.784;2023-03-12T04:21:38;100850.25;;;18.98;39.11
48848;BME280;36611;51.638;5.784;2023-03-12T04:24:06;100856.88;;;18.96;38.94
48848;BME280;36611;51.638;5.784;2023-03-12T04:26:34;100847.16;;;18.93;39.19
48848;BME280;36611;51.638;5.784;2023-03-12T04:29:01;100840.34;;;18.89;38.98
48848;BME280;36611;51.638;5.784;2023-03-12T04:31:28;100837.28;;;18.92;39.23
48848;BME280;36611;51.638;5.784;2023-03-12T04:33:55;100831.16;;;18.90;39.03
48848;BME280;36611;51.638;5.784;2023-03-12T04:36:23;100820.44;;;18.89;39.18
48848;BME280;36611;51.638;5.784;2023-03-12T04:38:51;100827.75;;;18.88;39.04
48848;BME280;36611;51.638;5.784;2023-03-12T04:41:22;100813.97;;;18.90;39.37
48848;BME280;36611;51.638;5.784;2023-03-12T04:43:54;100804.09;;;18.89;39.29
48848;BME280;36611;51.638;5.784;2023-03-12T04:46:21;100803.94;;;18.90;39.24
48848;BME280;36611;51.638;5.784;2023-03-12T04:48:48;100800.19;;;18.91;39.25
48848;BME280;36611;51.638;5.784;2023-03-12T04:51:15;100785.41;;;18.94;39.04
48848;BME280;36611;51.638;5.784;2023-03-12T04:53:42;100796.31;;;18.94;39.00
48848;BME280;36611;51.638;5.784;2023-03-12T04:56:10;100786.09;;;18.96;39.03
48848;BME280;36611;51.638;5.784;2023-03-12T04:58:38;100790.00;;;18.93;39.19
48848;BME280;36611;51.638;5.784;2023-03-12T05:01:05;100794.28;;;18.96;39.28
48848;BME280;36611;51.638;5.784;2023-03-12T05:03:32;100791.72;;;18.94;39.15
48848;BME280;36611;51.638;5.784;2023-03-12T05:05:59;100786.28;;;18.94;39.26
48848;BME280;36611;51.638;5.784;2023-03-12T05:08:26;100784.06;;;18.98;39.31
48848;BME280;36611;51.638;5.784;2023-03-12T05:10:52;100776.91;;;18.97;38.94
48848;BME280;36611;51.638;5.784;2023-03-12T05:13:21;100767.22;;;18.94;39.27
48848;BME280;36611;51.638;5.784;2023-03-12T05:15:51;100766.88;;;18.97;38.95
48848;BME280;36611;51.638;5.784;2023-03-12T05:18:18;100771.66;;;18.95;39.31
48848;BME280;36611;51.638;5.784;2023-03-12T05:21:03;100763.47;;;18.95;38.97
48848;BME280;36611;51.638;5.784;2023-03-12T05:23:30;100760.44;;;18.98;39.30
48848;BME280;36611;51.638;5.784;2023-03-12T05:25:57;100753.28;;;18.97;39.02
48848;BME280;36611;51.638;5.784;2023-03-12T05:28:24;100740.69;;;18.96;39.02
48848;BME280;36611;51.638;5.784;2023-03-12T05:30:57;100733.22;;;18.98;38.70
48848;BME280;36611;51.638;5.784;2023-03-12T05:33:25;100738.66;;;18.98;39.17
48848;BME280;36611;51.638;5.784;2023-03-12T05:35:53;100743.25;;;18.98;38.69
48848;BME280;36611;51.638;5.784;2023-03-12T05:38:20;100734.91;;;18.99;38.76
48848;BME280;36611;51.638;5.784;2023-03-12T05:40:53;100732.34;;;18.98;38.96
48848;BME280;36611;51.638;5.784;2023-03-12T05:43:20;100732.34;;;18.98;38.99
48848;BME280;36611;51.638;5.784;2023-03-12T05:45:48;100732.34;;;18.98;39.30
48848;BME280;36611;51.638;5.784;2023-03-12T05:48:15;100736.94;;;18.97;39.11
48848;BME280;36611;51.638;5.784;2023-03-12T05:50:42;100738.97;;;18.95;39.07
48848;BME280;36611;51.638;5.784;2023-03-12T05:53:09;100730.81;;;18.95;39.01
48848;BME280;36611;51.638;5.784;2023-03-12T05:55:37;100740.16;;;18.93;38.88
48848;BME280;36611;51.638;5.784;2023-03-12T05:58:06;100724.84;;;18.92;38.99
48848;BME280;36611;51.638;5.784;2023-03-12T06:00:34;100728.09;;;18.95;39.21
48848;BME280;36611;51.638;5.784;2023-03-12T06:03:04;100719.25;;;18.93;39.19
48848;BME280;36611;51.638;5.784;2023-03-12T06:05:33;100723.31;;;18.89;39.19
48848;BME280;36611;51.638;5.784;2023-03-12T06:08:00;100732.34;;;18.90;39.25
48848;BME280;36611;51.638;5.784;2023-03-12T06:10:28;100730.47;;;18.90;38.96
48848;BME280;36611;51.638;5.784;2023-03-12T06:12:55;100730.47;;;18.90;39.18
48848;BME280;36611;51.638;5.784;2023-03-12T06:15:22;100735.06;;;18.90;39.21
48848;BME280;36611;51.638;5.784;2023-03-12T06:17:49;100730.13;;;18.93;38.94
48848;BME280;36611;51.638;5.784;2023-03-12T06:20:15;100734.91;;;18.91;39.08
48848;BME280;36611;51.638;5.784;2023-03-12T06:22:42;100727.56;;;18.92;39.28
48848;BME280;36611;51.638;5.784;2023-03-12T06:25:08;100724.16;;;18.90;39.23
48848;BME280;36611;51.638;5.784;2023-03-12T06:27:36;100718.56;;;18.91;39.18
48848;BME280;36611;51.638;5.784;2023-03-12T06:30:03;100726.41;;;18.94;38.95
48848;BME280;36611;51.638;5.784;2023-03-12T06:32:30;100723.69;;;18.94;39.08
48848;BME280;36611;51.638;5.784;2023-03-12T06:34:57;100726.41;;;18.94;38.83
48848;BME280;36611;51.638;5.784;2023-03-12T06:37:26;100725.53;;;18.94;39.04
48848;BME280;36611;51.638;5.784;2023-03-12T06:39:53;100723.69;;;18.94;39.28
48848;BME280;36611;51.638;5.784;2023-03-12T06:42:20;100726.41;;;18.94;38.91
48848;BME280;36611;51.638;5.784;2023-03-12T06:44:48;100729.97;;;18.95;38.99
48848;BME280;36611;51.638;5.784;2023-03-12T06:47:15;100723.84;;;18.93;38.77
48848;BME280;36611;51.638;5.784;2023-03-12T06:49:43;100720.44;;;18.91;39.23
48848;BME280;36611;51.638;5.784;2023-03-12T06:52:09;100715.84;;;18.91;39.28
48848;BME280;36611;51.638;5.784;2023-03-12T06:54:36;100714.50;;;18.95;39.03
48848;BME280;36611;51.638;5.784;2023-03-12T06:57:02;100713.66;;;18.95;39.00
48848;BME280;36611;51.638;5.784;2023-03-12T06:59:29;100713.81;;;18.93;38.98
48848;BME280;36611;51.638;5.784;2023-03-12T07:01:56;100715.69;;;18.93;38.85
48848;BME280;36611;51.638;5.784;2023-03-12T07:04:22;100710.06;;;18.94;38.99
48848;BME280;36611;51.638;5.784;2023-03-12T07:06:49;100708.38;;;18.93;39.15
48848;BME280;36611;51.638;5.784;2023-03-12T07:09:17;100705.81;;;18.92;39.18
48848;BME280;36611;51.638;5.784;2023-03-12T07:11:44;100704.97;;;18.91;39.28
48848;BME280;36611;51.638;5.784;2023-03-12T07:14:11;100698.66;;;18.91;38.88
48848;BME280;36611;51.638;5.784;2023-03-12T07:16:37;100691.53;;;18.90;38.95
48848;BME280;36611;51.638;5.784;2023-03-12T07:19:04;100694.25;;;18.90;39.24
48848;BME280;36611;51.638;5.784;2023-03-12T07:21:30;100688.97;;;18.88;39.25
48848;BME280;36611;51.638;5.784;2023-03-12T07:23:57;100692.69;;;18.87;38.88
48848;BME280;36611;51.638;5.784;2023-03-12T07:26:23;100687.25;;;18.87;38.90
48848;BME280;36611;51.638;5.784;2023-03-12T07:28:50;100691.53;;;18.90;39.34
48848;BME280;36611;51.638;5.784;2023-03-12T07:31:16;100697.66;;;18.92;39.31
48848;BME280;36611;51.638;5.784;2023-03-12T07:33:43;100698.34;;;18.94;39.11
48848;BME280;36611;51.638;5.784;2023-03-12T07:36:10;100697.31;;;18.95;38.99
48848;BME280;36611;51.638;5.784;2023-03-12T07:38:45;100692.88;;;18.94;39.27
48848;BME280;36611;51.638;5.784;2023-03-12T07:41:12;100691.03;;;18.94;39.03
48848;BME280;36611;51.638;5.784;2023-03-12T07:43:39;100695.94;;;18.91;39.08
48848;BME280;36611;51.638;5.784;2023-03-12T07:46:05;100684.53;;;18.87;39.04
48848;BME280;36611;51.638;5.784;2023-03-12T07:48:32;100691.00;;;18.86;39.31
48848;BME280;36611;51.638;5.784;2023-03-12T07:50:58;100694.75;;;18.85;39.34
48848;BME280;36611;51.638;5.784;2023-03-12T07:53:25;100691.34;;;18.83;39.11
48848;BME280;36611;51.638;5.784;2023-03-12T07:55:51;100690.16;;;18.86;39.10
48848;BME280;36611;51.638;5.784;2023-03-12T07:58:20;100685.56;;;18.86;39.31
48848;BME280;36611;51.638;5.784;2023-03-12T08:00:46;100682.66;;;18.88;39.10
48848;BME280;36611;51.638;5.784;2023-03-12T08:03:13;100693.38;;;18.89;39.11
48848;BME280;36611;51.638;5.784;2023-03-12T08:05:40;100691.53;;;18.90;38.97
48848;BME280;36611;51.638;5.784;2023-03-12T08:08:07;100692.69;;;18.87;38.78
48848;BME280;36611;51.638;5.784;2023-03-12T08:10:35;100691.34;;;18.91;39.15
48848;BME280;36611;51.638;5.784;2023-03-12T08:13:01;100689.66;;;18.90;38.92
48848;BME280;36611;51.638;5.784;2023-03-12T08:15:28;100683.34;;;18.90;38.85
48848;BME280;36611;51.638;5.784;2023-03-12T08:17:55;100690.66;;;18.89;39.03
48848;BME280;36611;51.638;5.784;2023-03-12T08:20:21;100691.00;;;18.86;39.18
48848;BME280;36611;51.638;5.784;2023-03-12T08:22:48;100687.25;;;18.87;39.38
48848;BME280;36611;51.638;5.784;2023-03-12T08:25:14;100691.69;;;18.88;38.98
48848;BME280;36611;51.638;5.784;2023-03-12T08:27:41;100686.41;;;18.87;39.06
48848;BME280;36611;51.638;5.784;2023-03-12T08:30:08;100683.84;;;18.85;39.00
48848;BME280;36611;51.638;5.784;2023-03-12T08:32:35;100683.16;;;18.83;39.39
48848;BME280;36611;51.638;5.784;2023-03-12T08:35:01;100690.31;;;18.84;39.08
48848;BME280;36611;51.638;5.784;2023-03-12T08:37:30;100687.44;;;18.86;39.23
48848;BME280;36611;51.638;5.784;2023-03-12T08:39:57;100684.88;;;18.84;39.19
48848;BME280;36611;51.638;5.784;2023-03-12T08:42:24;100683.34;;;18.90;39.06
48848;BME280;36611;51.638;5.784;2023-03-12T08:44:50;100674.69;;;18.86;39.07
48848;BME280;36611;51.638;5.784;2023-03-12T08:47:17;100684.38;;;18.89;39.04
48848;BME280;36611;51.638;5.784;2023-03-12T08:49:43;100686.94;;;18.90;39.21
48848;BME280;36611;51.638;5.784;2023-03-12T08:52:10;100688.28;;;18.94;39.40
48848;BME280;36611;51.638;5.784;2023-03-12T08:54:36;100695.94;;;18.91;38.97
48848;BME280;36611;51.638;5.784;2023-03-12T08:57:03;100697.81;;;18.90;38.93
48848;BME280;36611;51.638;5.784;2023-03-12T08:59:29;100696.97;;;18.90;39.23
48848;BME280;36611;51.638;5.784;2023-03-12T09:01:56;100699.84;;;18.88;39.17
48848;BME280;36611;51.638;5.784;2023-03-12T09:04:22;100695.94;;;18.91;38.91
48848;BME280;36611;51.638;5.784;2023-03-12T09:06:49;100698.34;;;18.94;38.84
48848;BME280;36611;51.638;5.784;2023-03-12T09:09:15;100697.66;;;18.92;38.88
48848;BME280;36611;51.638;5.784;2023-03-12T09:11:42;100701.06;;;18.94;39.32
48848;BME280;36611;51.638;5.784;2023-03-12T09:14:09;100708.38;;;18.93;39.20
48848;BME280;36611;51.638;5.784;2023-03-12T09:16:56;100706.81;;;18.91;39.16
48848;BME280;36611;51.638;5.784;2023-03-12T09:19:23;100704.97;;;18.91;39.20
48848;BME280;36611;51.638;5.784;2023-03-12T09:21:49;100703.75;;;18.86;39.02
48848;BME280;36611;51.638;5.784;2023-03-12T09:24:16;100706.31;;;18.87;39.24
48848;BME280;36611;51.638;5.784;2023-03-12T09:26:43;100704.44;;;18.88;39.11
48848;BME280;36611;51.638;5.784;2023-03-12T09:29:09;100698.31;;;18.86;38.98
48848;BME280;36611;51.638;5.784;2023-03-12T09:31:36;100691.34;;;18.83;39.15
48848;BME280;36611;51.638;5.784;2023-03-12T09:34:03;100695.06;;;18.82;38.79
48848;BME280;36611;51.638;5.784;2023-03-12T09:36:30;100696.09;;;18.81;39.10
48848;BME280;36611;51.638;5.784;2023-03-12T09:38:59;100689.97;;;18.79;39.10
48848;BME280;36611;51.638;5.784;2023-03-12T09:41:32;100693.69;;;18.78;39.03
48848;BME280;36611;51.638;5.784;2023-03-12T09:44:19;100694.72;;;18.77;38.83
48848;BME280;36611;51.638;5.784;2023-03-12T09:46:53;100689.28;;;18.77;39.02
48848;BME280;36611;51.638;5.784;2023-03-12T09:49:38;100689.44;;;18.76;38.85
48848;BME280;36611;51.638;5.784;2023-03-12T09:52:17;100702.34;;;18.73;39.18
48848;BME280;36611;51.638;5.784;2023-03-12T09:54:55;100703.38;;;18.72;38.82
48848;BME280;36611;51.638;5.784;2023-03-12T09:57:25;100702.53;;;18.72;39.00
48848;BME280;36611;51.638;5.784;2023-03-12T09:59:54;100713.25;;;18.73;39.01
48848;BME280;36611;51.638;5.784;2023-03-12T10:08:34;100715.78;;;18.67;39.35
48848;BME280;36611;51.638;5.784;2023-03-12T10:11:24;100712.88;;;18.68;39.13
48848;BME280;36611;51.638;5.784;2023-03-12T10:14:04;100714.75;;;18.68;39.09
48848;BME280;36611;51.638;5.784;2023-03-12T10:19:39;100712.03;;;18.68;39.40
48848;BME280;36611;51.638;5.784;2023-03-12T10:24:55;100715.78;;;18.67;39.48
48848;BME280;36611;51.638;5.784;2023-03-12T10:27:28;100714.75;;;18.68;39.29
48848;BME280;36611;51.638;5.784;2023-03-12T10:29:56;100710.00;;;18.70;39.41
48848;BME280;36611;51.638;5.784;2023-03-12T10:32:39;100712.72;;;18.70;39.03
48848;BME280;36611;51.638;5.784;2023-03-12T10:35:19;100709.31;;;18.68;39.09
48848;BME280;36611;51.638;5.784;2023-03-12T10:37:57;100707.44;;;18.68;39.08
48848;BME280;36611;51.638;5.784;2023-03-12T10:40:27;100709.16;;;18.69;39.18
48848;BME280;36611;51.638;5.784;2023-03-12T10:42:54;100712.88;;;18.68;39.38
48848;BME280;36611;51.638;5.784;2023-03-12T10:45:35;100713.56;;;18.70;39.19
48848;BME280;36611;51.638;5.784;2023-03-12T10:48:06;100715.44;;;18.70;39.09
48848;BME280;36611;51.638;5.784;2023-03-12T10:50:38;100712.56;;;18.71;39.30
48848;BME280;36611;51.638;5.784;2023-03-12T10:55:38;100707.97;;;18.72;39.39
48848;BME280;36611;51.638;5.784;2023-03-12T10:58:05;100695.22;;;18.72;39.57
48848;BME280;36611;51.638;5.784;2023-03-12T11:00:32;100694.38;;;18.72;39.30
48848;BME280;36611;51.638;5.784;2023-03-12T11:03:02;100698.94;;;18.71;39.24
48848;BME280;36611;51.638;5.784;2023-03-12T11:05:35;100704.06;;;18.75;39.44
48848;BME280;36611;51.638;5.784;2023-03-12T11:08:25;100693.19;;;18.75;39.36
48848;BME280;36611;51.638;5.784;2023-03-12T11:10:53;100702.53;;;18.72;39.52
48848;BME280;36611;51.638;5.784;2023-03-12T11:15:53;100707.81;;;18.73;39.25
48848;BME280;36611;51.638;5.784;2023-03-12T11:18:28;100705.25;;;18.72;39.14
48848;BME280;36611;51.638;5.784;2023-03-12T11:25:51;100707.97;;;18.72;39.56
48848;BME280;36611;51.638;5.784;2023-03-12T11:28:27;100706.78;;;18.75;39.63
48848;BME280;36611;51.638;5.784;2023-03-12T11:30:56;100716.66;;;18.76;39.34
48848;BME280;36611;51.638;5.784;2023-03-12T11:33:24;100715.78;;;18.75;39.33
48848;BME280;36611;51.638;5.784;2023-03-12T11:36:05;100719.22;;;18.77;39.48
48848;BME280;36611;51.638;5.784;2023-03-12T11:38:39;100720.06;;;18.78;39.17
48848;BME280;36611;51.638;5.784;2023-03-12T11:43:56;100723.13;;;18.83;39.51
48848;BME280;36611;51.638;5.784;2023-03-12T11:49:32;100722.13;;;18.84;39.18
48848;BME280;36611;51.638;5.784;2023-03-12T11:52:34;100727.38;;;18.85;39.30
48848;BME280;36611;51.638;5.784;2023-03-12T12:00:14;100725.16;;;18.81;39.28
48848;BME280;36611;51.638;5.784;2023-03-12T12:13:52;100714.63;;;18.78;39.80
48848;BME280;36611;51.638;5.784;2023-03-12T12:19:22;100697.28;;;18.79;39.73
48848;BME280;36611;51.638;5.784;2023-03-12T12:27:28;100679.09;;;18.87;39.91
48848;BME280;36611;51.638;5.784;2023-03-12T12:30:09;100670.75;;;18.89;39.80
48848;BME280;36611;51.638;5.784;2023-03-12T12:33:02;100678.09;;;18.88;39.70
48848;BME280;36611;51.638;5.784;2023-03-12T12:35:38;100675.88;;;18.92;39.59
48848;BME280;36611;51.638;5.784;2023-03-12T12:40:44;100670.59;;;18.90;39.73
48848;BME280;36611;51.638;5.784;2023-03-12T12:45:47;100674.00;;;18.92;39.92
48848;BME280;36611;51.638;5.784;2023-03-12T12:48:33;100667.53;;;18.93;39.85
48848;BME280;36611;51.638;5.784;2023-03-12T12:51:03;100674.84;;;18.93;39.74
48848;BME280;36611;51.638;5.784;2023-03-12T13:01:18;100654.78;;;18.94;39.74
48848;BME280;36611;51.638;5.784;2023-03-12T13:03:46;100655.81;;;18.93;39.99
48848;BME280;36611;51.638;5.784;2023-03-12T13:06:13;100660.22;;;18.94;40.04
48848;BME280;36611;51.638;5.784;2023-03-12T13:14:10;100626.03;;;18.91;40.23
48848;BME280;36611;51.638;5.784;2023-03-12T13:16:39;100624.16;;;18.92;40.24
48848;BME280;36611;51.638;5.784;2023-03-12T13:29:44;100625.88;;;18.93;40.13
48848;BME280;36611;51.638;5.784;2023-03-12T13:35:18;100627.56;;;18.94;40.09
48848;BME280;36611;51.638;5.784;2023-03-12T13:40:36;100634.22;;;18.91;40.21
48848;BME280;36611;51.638;5.784;2023-03-12T13:43:15;100628.75;;;18.91;40.17
48848;BME280;36611;51.638;5.784;2023-03-12T13:46:07;100621.44;;;18.92;40.20
48848;BME280;36611;51.638;5.784;2023-03-12T13:48:47;100620.78;;;18.90;40.21
48848;BME280;36611;51.638;5.784;2023-03-12T13:51:19;100628.09;;;18.89;40.05
48848;BME280;36611;51.638;5.784;2023-03-12T13:53:53;100624.69;;;18.87;40.29
48848;BME280;36611;51.638;5.784;2023-03-12T13:56:26;100617.53;;;18.86;40.56
48848;BME280;36611;51.638;5.784;2023-03-12T13:58:56;100611.06;;;18.87;40.43
48848;BME280;36611;51.638;5.784;2023-03-12T14:01:30;100631.66;;;18.90;40.21
48848;BME280;36611;51.638;5.784;2023-03-12T14:04:07;100633.84;;;18.86;40.15
48848;BME280;36611;51.638;5.784;2023-03-12T14:06:53;100638.97;;;18.89;40.50
48848;BME280;36611;51.638;5.784;2023-03-12T14:12:08;100626.38;;;18.96;40.11
48848;BME280;36611;51.638;5.784;2023-03-12T14:17:23;100642.03;;;18.94;40.35
48848;BME280;36611;51.638;5.784;2023-03-12T14:19:59;100643.06;;;18.93;39.97
48848;BME280;36611;51.638;5.784;2023-03-12T14:22:34;100643.06;;;18.93;40.30
48848;BME280;36611;51.638;5.784;2023-03-12T14:25:42;100642.38;;;18.91;40.40
48848;BME280;36611;51.638;5.784;2023-03-12T14:28:10;100647.66;;;18.93;40.25
48848;BME280;36611;51.638;5.784;2023-03-12T14:31:02;100656.81;;;18.92;40.55
48848;BME280;36611;51.638;5.784;2023-03-12T14:33:47;100646.97;;;18.91;40.69
48848;BME280;36611;51.638;5.784;2023-03-12T14:36:17;100649.50;;;18.92;40.48
48848;BME280;36611;51.638;5.784;2023-03-12T14:38:47;100649.50;;;18.92;40.46
48848;BME280;36611;51.638;5.784;2023-03-12T14:41:33;100659.22;;;18.95;40.67